TimeEDT,TemperatureF,Dew PointF,Humidity,Sea Level PressureIn,VisibilityMPH,Wind Direction,Wind SpeedMPH,Gust SpeedMPH,PrecipitationIn,Events,Conditions,WindDirDegrees,DateUTC
12:51 AM,73.9,64.9,73,30.09,10.0,South,5.8,-,N/A,,Scattered Clouds,170,2013-06-23 04:51:00
1:51 AM,73.0,64.9,76,30.09,10.0,SSW,5.8,-,N/A,,Scattered Clouds,210,2013-06-23 05:51:00
2:51 AM,72.0,66.0,81,30.09,10.0,South,5.8,-,N/A,,Scattered Clouds,190,2013-06-23 06:51:00
3:51 AM,71.1,66.0,84,30.08,9.0,South,4.6,-,N/A,,Partly Cloudy,180,2013-06-23 07:51:00
4:51 AM,70.0,66.0,87,30.09,7.0,Calm,Calm,-,N/A,,Scattered Clouds,0,2013-06-23 08:51:00
5:51 AM,69.1,66.0,90,30.11,6.0,South,3.5,-,N/A,,Partly Cloudy,170,2013-06-23 09:51:00
6:51 AM,70.0,66.9,90,30.12,5.0,South,6.9,-,N/A,,Partly Cloudy,190,2013-06-23 10:51:00
7:51 AM,73.0,66.9,81,30.13,7.0,SSW,6.9,-,N/A,,Partly Cloudy,200,2013-06-23 11:51:00
8:51 AM,78.1,68.0,71,30.13,9.0,SSW,5.8,-,N/A,,Partly Cloudy,200,2013-06-23 12:51:00
9:51 AM,81.0,68.0,65,30.13,10.0,SSW,8.1,-,N/A,,Partly Cloudy,200,2013-06-23 13:51:00
10:51 AM,82.9,68.0,60,30.12,10.0,SW,11.5,-,N/A,,Scattered Clouds,230,2013-06-23 14:51:00
11:51 AM,84.9,64.9,51,30.11,10.0,SSW,12.7,20.7,N/A,,Scattered Clouds,210,2013-06-23 15:51:00
12:51 PM,87.1,63.0,44,30.10,10.0,SW,12.7,19.6,N/A,,Mostly Cloudy,230,2013-06-23 16:51:00
1:51 PM,86.0,63.0,46,30.09,10.0,SW,11.5,-,N/A,,Mostly Cloudy,220,2013-06-23 17:51:00
2:51 PM,88.0,63.0,43,30.08,10.0,SSW,9.2,17.3,N/A,,Mostly Cloudy,210,2013-06-23 18:51:00
3:51 PM,87.1,64.0,46,30.07,10.0,SW,6.9,-,N/A,,Mostly Cloudy,230,2013-06-23 19:51:00
4:51 PM,88.0,61.0,40,30.05,10.0,SW,12.7,-,N/A,,Mostly Cloudy,220,2013-06-23 20:51:00
5:51 PM,88.0,64.0,45,30.04,10.0,SW,9.2,-,N/A,,Mostly Cloudy,230,2013-06-23 21:51:00
6:51 PM,84.0,62.1,47,30.04,10.0,SSW,6.9,-,N/A,,Mostly Cloudy,210,2013-06-23 22:51:00
7:51 PM,81.0,63.0,54,30.04,10.0,SSW,5.8,-,N/A,,Mostly Cloudy,210,2013-06-23 23:51:00
8:51 PM,78.1,63.0,60,30.05,10.0,SSW,4.6,-,N/A,,Scattered Clouds,200,2013-06-24 00:51:00
9:51 PM,77.0,63.0,62,30.06,10.0,South,4.6,-,N/A,,Scattered Clouds,180,2013-06-24 01:51:00
10:51 PM,75.9,63.0,64,30.08,10.0,South,5.8,-,N/A,,Scattered Clouds,190,2013-06-24 02:51:00
11:51 PM,75.9,64.0,67,30.09,10.0,South,4.6,-,N/A,,Scattered Clouds,190,2013-06-24 03:51:00